Terminal Aerodrome Forecast
Issued by NWS Sioux Falls, SD

Home | Current Version | Previous Version | Graphics & Text | Print | Product List | Glossary On
Versions: 1 2 3 4 5 6 7 8 9 10 11 12 13 14 15 16
609
FTUS43 KFSD 051132
TAFFSD
TAF
KFSD 051132Z 0512/0612 17009KT P6SM BKN130
     FM051800 21010KT P6SM SCT015 OVC025
      TEMPO 0519/0522 3SM -SHSN OVC015
     FM052300 30008KT P6SM OVC015
     FM060400 31006KT P6SM SCT080
     FM060800 25005KT P6SM SCT090=

USA.gov is the U.S. government's official web portal to all federal, state and local government web resources and services.